createdAt,value
2022-09-22T00:00:07.188Z,1006.34
2022-09-22T00:01:07.276Z,1006.34
2022-09-22T00:02:07.245Z,1006.35
2022-09-22T00:03:07.218Z,1006.34
2022-09-22T00:04:07.245Z,1006.36
2022-09-22T00:05:07.148Z,1006.44
2022-09-22T00:06:07.113Z,1006.35
2022-09-22T00:07:07.107Z,1006.36
2022-09-22T00:08:07.158Z,1006.35
2022-09-22T00:09:07.317Z,1006.39
2022-09-22T00:10:07.128Z,1006.36
2022-09-22T00:11:07.072Z,1006.33
2022-09-22T00:12:07.039Z,1006.33
2022-09-22T00:13:07.050Z,1006.32
2022-09-22T00:14:07.289Z,1006.33
2022-09-22T00:15:07.044Z,1006.34
2022-09-22T00:16:07.103Z,1006.36
2022-09-22T00:17:07.050Z,1006.35
2022-09-22T00:18:06.977Z,1006.35
2022-09-22T00:19:06.982Z,1006.33
2022-09-22T00:20:06.919Z,1006.38
2022-09-22T00:21:06.959Z,1006.34
2022-09-22T00:22:07.240Z,1006.38
2022-09-22T00:23:07.107Z,1006.36
2022-09-22T00:24:07.210Z,1006.36
2022-09-22T00:25:06.870Z,1006.36
2022-09-22T00:26:06.890Z,1006.32
2022-09-22T00:27:06.849Z,1006.31
2022-09-22T00:28:06.861Z,1006.31
2022-09-22T00:29:06.934Z,1006.29
2022-09-22T00:30:06.865Z,1006.33
2022-09-22T00:31:06.912Z,1006.32
2022-09-22T00:32:07.892Z,1006.32
2022-09-22T00:33:07.111Z,1006.29
2022-09-22T00:34:06.771Z,1006.29
2022-09-22T00:35:06.792Z,1006.33
2022-09-22T00:36:06.788Z,1006.30
2022-09-22T00:37:06.758Z,1006.28
2022-09-22T00:38:06.731Z,1006.32
2022-09-22T00:39:06.851Z,1006.36
2022-09-22T00:40:06.877Z,1006.36
2022-09-22T00:41:06.791Z,1006.30
2022-09-22T00:42:06.682Z,1006.28
2022-09-22T00:43:07.262Z,1006.30
2022-09-22T00:44:06.681Z,1006.32
2022-09-22T00:45:06.703Z,1006.31
2022-09-22T00:46:06.622Z,1006.26
2022-09-22T00:47:06.681Z,1006.31
2022-09-22T00:48:06.631Z,1006.32
2022-09-22T00:49:06.589Z,1006.31
2022-09-22T00:50:06.623Z,1006.26
2022-09-22T00:51:06.631Z,1006.29
2022-09-22T00:52:06.593Z,1006.25
2022-09-22T00:53:07.152Z,1006.26
2022-09-22T00:54:06.708Z,1006.23
2022-09-22T00:55:06.554Z,1006.24
2022-09-22T00:56:06.512Z,1006.22
2022-09-22T00:57:07.191Z,1006.22
2022-09-22T00:58:06.555Z,1006.17
2022-09-22T00:59:06.550Z,1006.20
2022-09-22T01:00:06.484Z,1006.17
2022-09-22T01:01:06.514Z,1006.15
2022-09-22T01:02:06.561Z,1006.20
2022-09-22T01:03:06.429Z,1006.19
2022-09-22T01:04:06.476Z,1006.21
2022-09-22T01:05:06.532Z,1006.17
2022-09-22T01:06:06.407Z,1006.15
2022-09-22T01:07:06.417Z,1006.20
2022-09-22T01:08:06.397Z,1006.20
2022-09-22T01:09:06.728Z,1006.17
2022-09-22T01:10:06.410Z,1006.18
2022-09-22T01:11:06.418Z,1006.15
2022-09-22T01:12:06.347Z,1006.13
2022-09-22T01:13:06.331Z,1006.20
2022-09-22T01:14:06.362Z,1006.17
2022-09-22T01:15:06.402Z,1006.13
2022-09-22T01:16:06.764Z,1006.16
2022-09-22T01:17:06.287Z,1006.12
2022-09-22T01:18:06.295Z,1006.15
2022-09-22T01:19:06.274Z,1006.11
2022-09-22T01:20:06.339Z,1006.14
2022-09-22T01:21:06.234Z,1006.15
2022-09-22T01:22:06.679Z,1006.11
2022-09-22T01:23:06.213Z,1006.15
2022-09-22T01:24:06.331Z,1006.13
2022-09-22T01:25:06.200Z,1006.14
2022-09-22T01:26:06.197Z,1006.05
2022-09-22T01:27:06.220Z,1006.07
2022-09-22T01:28:06.176Z,1006.08
2022-09-22T01:29:06.171Z,1006.07
2022-09-22T01:30:06.140Z,1006.05
2022-09-22T01:31:06.167Z,1006.06
2022-09-22T01:32:06.112Z,1006.04
2022-09-22T01:33:06.194Z,1006.03
2022-09-22T01:34:06.106Z,1006.06
2022-09-22T01:35:06.060Z,1006.06
2022-09-22T01:36:06.089Z,1006.03
2022-09-22T01:37:06.068Z,1005.98
2022-09-22T01:38:06.054Z,1006.06
2022-09-22T01:39:06.162Z,1006.07
2022-09-22T01:40:06.088Z,1006.04
2022-09-22T01:41:06.008Z,1006.07
2022-09-22T01:42:06.058Z,1005.98
2022-09-22T01:43:05.991Z,1005.99
2022-09-22T01:44:06.023Z,1006.03
2022-09-22T01:45:05.978Z,1006.04
2022-09-22T01:46:06.013Z,1006.05
2022-09-22T01:47:05.971Z,1006.06
2022-09-22T01:48:05.933Z,1006.08
2022-09-22T01:49:05.899Z,1006.07
2022-09-22T01:50:05.931Z,1006.07
2022-09-22T01:51:05.888Z,1006.05
2022-09-22T01:52:05.880Z,1006.07
2022-09-22T01:53:05.887Z,1006.06
2022-09-22T01:54:05.966Z,1006.10
2022-09-22T01:55:05.879Z,1006.09
2022-09-22T01:56:05.874Z,1006.10
2022-09-22T01:57:05.892Z,1006.07
2022-09-22T01:58:05.814Z,1006.06
2022-09-22T01:59:05.807Z,1006.07
2022-09-22T02:00:05.823Z,1006.02
2022-09-22T02:01:05.827Z,1006.11
2022-09-22T02:02:05.826Z,1006.11
2022-09-22T02:03:05.762Z,1006.08
2022-09-22T02:04:05.741Z,1006.16
2022-09-22T02:05:05.767Z,1006.10
2022-09-22T02:06:05.712Z,1006.12
2022-09-22T02:07:05.754Z,1006.11
2022-09-22T02:08:05.695Z,1006.10
2022-09-22T02:09:05.782Z,1006.06
2022-09-22T02:10:05.682Z,1006.12
2022-09-22T02:11:05.652Z,1006.11
2022-09-22T02:12:05.651Z,1006.11
2022-09-22T02:13:05.783Z,1006.04
2022-09-22T02:14:05.621Z,1006.12
2022-09-22T02:15:05.639Z,1006.06
2022-09-22T02:16:05.657Z,1006.08
2022-09-22T02:17:05.583Z,1006.00
2022-09-22T02:18:05.593Z,1006.00
2022-09-22T02:19:12.426Z,1005.95
2022-09-22T02:20:06.554Z,1005.99
2022-09-22T02:21:05.562Z,1005.93
2022-09-22T02:22:05.544Z,1005.93
2022-09-22T02:23:05.524Z,1005.95
2022-09-22T02:24:05.685Z,1005.96
2022-09-22T02:25:05.494Z,1005.95
2022-09-22T02:26:05.485Z,1005.94
2022-09-22T02:27:05.473Z,1005.89
2022-09-22T02:28:05.495Z,1005.90
2022-09-22T02:29:05.456Z,1005.88
2022-09-22T02:30:05.464Z,1005.84
2022-09-22T02:31:19.695Z,1005.86
2022-09-22T02:32:06.463Z,1005.83
2022-09-22T02:33:05.394Z,1005.91
2022-09-22T02:34:05.394Z,1005.86
2022-09-22T02:35:05.384Z,1005.87
2022-09-22T02:36:05.405Z,1005.80
2022-09-22T02:37:05.374Z,1005.85
2022-09-22T02:38:05.356Z,1005.79
2022-09-22T02:39:05.464Z,1005.79
2022-09-22T02:40:05.365Z,1005.79
2022-09-22T02:41:05.319Z,1005.79
2022-09-22T02:42:05.346Z,1005.77
2022-09-22T02:43:05.298Z,1005.74
2022-09-22T02:44:05.265Z,1005.75
2022-09-22T02:45:05.265Z,1005.78
2022-09-22T02:46:05.339Z,1005.76
2022-09-22T02:47:05.343Z,1005.71
2022-09-22T02:48:05.246Z,1005.77
2022-09-22T02:49:05.231Z,1005.68
2022-09-22T02:50:05.227Z,1005.74
2022-09-22T02:51:05.206Z,1005.75
2022-09-22T02:52:05.194Z,1005.74
2022-09-22T02:53:05.225Z,1005.74
2022-09-22T02:54:05.248Z,1005.70
2022-09-22T02:55:05.179Z,1005.78
2022-09-22T02:56:05.152Z,1005.76
2022-09-22T02:57:05.136Z,1005.81
2022-09-22T02:58:05.151Z,1005.70
2022-09-22T02:59:05.133Z,1005.75
2022-09-22T03:00:05.123Z,1005.77
2022-09-22T03:01:05.101Z,1005.81
2022-09-22T03:02:05.112Z,1005.79
2022-09-22T03:03:05.085Z,1005.76
2022-09-22T03:04:05.080Z,1005.77
2022-09-22T03:05:05.154Z,1005.77
2022-09-22T03:06:05.038Z,1005.77
2022-09-22T03:07:05.030Z,1005.76
2022-09-22T03:08:05.003Z,1005.81
2022-09-22T03:09:05.078Z,1005.77
2022-09-22T03:10:05.038Z,1005.71
2022-09-22T03:11:04.983Z,1005.75
2022-09-22T03:12:04.957Z,1005.71
2022-09-22T03:13:16.886Z,1005.73
2022-09-22T03:14:05.940Z,1005.70
2022-09-22T03:15:04.995Z,1005.71
2022-09-22T03:16:05.013Z,1005.68
2022-09-22T03:17:04.906Z,1005.65
2022-09-22T03:18:04.898Z,1005.61
2022-09-22T03:19:04.879Z,1005.61
2022-09-22T03:20:04.887Z,1005.61
2022-09-22T03:21:04.904Z,1005.65
2022-09-22T03:22:04.850Z,1005.61
2022-09-22T03:23:04.858Z,1005.60
2022-09-22T03:24:04.892Z,1005.62
2022-09-22T03:25:04.814Z,1005.60
2022-09-22T03:26:04.821Z,1005.61
2022-09-22T03:27:04.810Z,1005.58
2022-09-22T03:28:04.801Z,1005.58
2022-09-22T03:29:04.771Z,1005.49
2022-09-22T03:30:04.789Z,1005.52
2022-09-22T03:31:04.764Z,1005.60
2022-09-22T03:32:04.732Z,1005.56
2022-09-22T03:33:04.771Z,1005.49
2022-09-22T03:34:04.731Z,1005.51
2022-09-22T03:35:04.725Z,1005.54
2022-09-22T03:36:04.691Z,1005.52
2022-09-22T03:37:04.681Z,1005.53
2022-09-22T03:38:04.664Z,1005.51
2022-09-22T03:39:04.768Z,1005.48
2022-09-22T03:40:04.709Z,1005.52
2022-09-22T03:41:04.622Z,1005.52
2022-09-22T03:42:04.631Z,1005.53
2022-09-22T03:43:04.628Z,1005.53
2022-09-22T03:44:04.661Z,1005.50
2022-09-22T03:45:04.573Z,1005.55
2022-09-22T03:46:04.660Z,1005.56
2022-09-22T03:47:04.555Z,1005.55
2022-09-22T03:48:04.553Z,1005.55
2022-09-22T03:49:04.537Z,1005.52
2022-09-22T03:50:04.554Z,1005.53
2022-09-22T03:51:04.503Z,1005.53
2022-09-22T03:52:04.563Z,1005.54
2022-09-22T03:53:04.513Z,1005.55
2022-09-22T03:54:04.486Z,1005.57
2022-09-22T03:55:04.495Z,1005.57
2022-09-22T03:56:04.490Z,1005.56
2022-09-22T03:57:04.454Z,1005.55
2022-09-22T03:58:04.460Z,1005.54
2022-09-22T03:59:04.435Z,1005.58
2022-09-22T04:00:04.604Z,1005.49
2022-09-22T04:01:04.484Z,1005.54
2022-09-22T04:02:04.485Z,1005.59
2022-09-22T04:03:04.412Z,1005.58
2022-09-22T04:04:04.396Z,1005.57
2022-09-22T04:05:04.356Z,1005.52
2022-09-22T04:06:04.357Z,1005.50
2022-09-22T04:07:07.267Z,1005.52
2022-09-22T04:08:04.379Z,1005.48
2022-09-22T04:09:04.316Z,1005.53
2022-09-22T04:10:04.308Z,1005.51
2022-09-22T04:11:04.285Z,1005.50
2022-09-22T04:12:04.291Z,1005.50
2022-09-22T04:13:04.324Z,1005.50
2022-09-22T04:14:04.266Z,1005.49
2022-09-22T04:15:04.246Z,1005.51
2022-09-22T04:16:04.245Z,1005.48
2022-09-22T04:17:04.446Z,1005.51
2022-09-22T04:18:04.215Z,1005.50
2022-09-22T04:19:04.297Z,1005.49
2022-09-22T04:20:04.197Z,1005.48
2022-09-22T04:21:04.196Z,1005.44
2022-09-22T04:22:04.183Z,1005.49
2022-09-22T04:23:04.153Z,1005.46
2022-09-22T04:24:04.139Z,1005.47
2022-09-22T04:25:04.158Z,1005.49
2022-09-22T04:26:04.116Z,1005.47
2022-09-22T04:27:20.068Z,1005.40
2022-09-22T04:28:05.713Z,1005.40
2022-09-22T04:29:04.097Z,1005.43
2022-09-22T04:30:04.476Z,1005.51
2022-09-22T04:31:04.104Z,1005.41
2022-09-22T04:32:04.058Z,1005.41
2022-09-22T04:33:04.037Z,1005.42
2022-09-22T04:34:07.474Z,1005.45
2022-09-22T04:35:04.029Z,1005.45
2022-09-22T04:36:04.069Z,1005.43
2022-09-22T04:37:04.003Z,1005.43
2022-09-22T04:38:03.998Z,1005.40
2022-09-22T04:39:03.977Z,1005.48
2022-09-22T04:40:04.051Z,1005.46
2022-09-22T04:41:04.156Z,1005.48
2022-09-22T04:42:04.970Z,1005.46
2022-09-22T04:43:04.128Z,1005.50
2022-09-22T04:44:03.968Z,1005.50
2022-09-22T04:45:03.914Z,1005.47
2022-09-22T04:46:04.061Z,1005.49
2022-09-22T04:47:04.003Z,1005.44
2022-09-22T04:48:03.935Z,1005.47
2022-09-22T04:49:03.864Z,1005.53
2022-09-22T04:50:03.848Z,1005.50
2022-09-22T04:51:03.840Z,1005.54
2022-09-22T04:52:03.827Z,1005.48
2022-09-22T04:53:03.968Z,1005.53
2022-09-22T04:54:03.820Z,1005.51
2022-09-22T04:55:03.999Z,1005.50
2022-09-22T04:56:04.061Z,1005.44
2022-09-22T04:57:03.795Z,1005.48
2022-09-22T04:58:03.762Z,1005.53
2022-09-22T04:59:03.789Z,1005.51
2022-09-22T05:00:03.749Z,1005.52
2022-09-22T05:01:03.972Z,1005.49
2022-09-22T05:02:03.744Z,1005.49
2022-09-22T05:03:03.755Z,1005.60
2022-09-22T05:04:03.692Z,1005.53
2022-09-22T05:05:03.738Z,1005.54
2022-09-22T05:06:03.715Z,1005.54
2022-09-22T05:07:04.813Z,1005.49
2022-09-22T05:08:03.675Z,1005.54
2022-09-22T05:09:03.652Z,1005.52
2022-09-22T05:10:03.629Z,1005.53
2022-09-22T05:11:03.632Z,1005.51
2022-09-22T05:12:03.594Z,1005.51
2022-09-22T05:13:03.624Z,1005.48
2022-09-22T05:14:03.586Z,1005.51
2022-09-22T05:15:03.586Z,1005.53
2022-09-22T05:16:03.634Z,1005.52
2022-09-22T05:17:03.551Z,1005.57
2022-09-22T05:18:03.539Z,1005.55
2022-09-22T05:19:03.523Z,1005.54
2022-09-22T05:20:03.512Z,1005.50
2022-09-22T05:21:03.550Z,1005.57
2022-09-22T05:22:03.535Z,1005.56
2022-09-22T05:23:03.482Z,1005.59
2022-09-22T05:24:03.516Z,1005.56
2022-09-22T05:25:03.660Z,1005.56
2022-09-22T05:26:03.450Z,1005.62
2022-09-22T05:27:03.432Z,1005.61
2022-09-22T05:28:03.486Z,1005.59
2022-09-22T05:29:03.433Z,1005.61
2022-09-22T05:30:03.404Z,1005.66
2022-09-22T05:31:03.412Z,1005.65
2022-09-22T05:32:03.526Z,1005.66
2022-09-22T05:33:03.428Z,1005.64
2022-09-22T05:34:03.592Z,1005.67
2022-09-22T05:35:04.547Z,1005.67
2022-09-22T05:36:03.335Z,1005.66
2022-09-22T05:37:03.344Z,1005.66
2022-09-22T05:38:03.632Z,1005.63
2022-09-22T05:39:03.323Z,1005.68
2022-09-22T05:40:03.379Z,1005.66
2022-09-22T05:41:03.284Z,1005.66
2022-09-22T05:42:06.380Z,1005.68
2022-09-22T05:43:04.263Z,1005.66
2022-09-22T05:44:03.234Z,1005.70
2022-09-22T05:45:03.607Z,1005.65
2022-09-22T05:46:03.293Z,1005.68
2022-09-22T05:47:03.224Z,1005.76
2022-09-22T05:48:03.206Z,1005.66
2022-09-22T05:49:03.194Z,1005.65
2022-09-22T05:50:03.166Z,1005.66
2022-09-22T05:51:03.189Z,1005.60
2022-09-22T05:52:03.164Z,1005.64
2022-09-22T05:53:03.149Z,1005.62
2022-09-22T05:54:03.165Z,1005.63
2022-09-22T05:55:03.115Z,1005.66
2022-09-22T05:56:03.139Z,1005.67
2022-09-22T05:57:03.089Z,1005.67
2022-09-22T05:58:03.086Z,1005.64
2022-09-22T05:59:03.085Z,1005.65
2022-09-22T06:00:03.066Z,1005.65
2022-09-22T06:01:03.208Z,1005.66
2022-09-22T06:02:13.353Z,1005.68
2022-09-22T06:03:04.086Z,1005.69
2022-09-22T06:04:03.023Z,1005.64
2022-09-22T06:05:03.027Z,1005.67
2022-09-22T06:06:02.992Z,1005.64
2022-09-22T06:07:03.019Z,1005.67
2022-09-22T06:08:02.969Z,1005.73
2022-09-22T06:09:02.979Z,1005.65
2022-09-22T06:10:02.936Z,1005.61
2022-09-22T06:11:02.935Z,1005.67
2022-09-22T06:12:02.961Z,1005.62
2022-09-22T06:13:02.936Z,1005.64
2022-09-22T06:14:03.013Z,1005.69
2022-09-22T06:15:02.893Z,1005.67
2022-09-22T06:16:03.069Z,1005.69
2022-09-22T06:17:02.858Z,1005.68
2022-09-22T06:18:02.934Z,1005.66
2022-09-22T06:19:02.869Z,1005.73
2022-09-22T06:20:02.837Z,1005.72
2022-09-22T06:21:02.812Z,1005.71
2022-09-22T06:22:02.818Z,1005.69
2022-09-22T06:23:02.847Z,1005.71
2022-09-22T06:24:02.808Z,1005.72
2022-09-22T06:25:02.953Z,1005.75
2022-09-22T06:26:02.831Z,1005.72
2022-09-22T06:27:02.770Z,1005.74
2022-09-22T06:28:02.760Z,1005.67
2022-09-22T06:29:02.849Z,1005.75
2022-09-22T06:30:02.789Z,1005.76
2022-09-22T06:31:02.810Z,1005.80
2022-09-22T06:32:02.735Z,1005.74
2022-09-22T06:33:02.694Z,1005.74
2022-09-22T06:34:05.515Z,1005.73
2022-09-22T06:35:02.707Z,1005.74
2022-09-22T06:36:02.910Z,1005.77
2022-09-22T06:37:02.639Z,1005.76
2022-09-22T06:38:02.620Z,1005.74
2022-09-22T06:39:02.618Z,1005.73
2022-09-22T06:40:02.624Z,1005.79
2022-09-22T06:41:02.653Z,1005.78
2022-09-22T06:42:02.604Z,1005.77
2022-09-22T06:43:02.772Z,1005.69
2022-09-22T06:44:02.570Z,1005.71
2022-09-22T06:45:02.542Z,1005.72
2022-09-22T06:46:02.557Z,1005.70
2022-09-22T06:47:03.342Z,1005.73
2022-09-22T06:48:06.299Z,1005.70
2022-09-22T06:49:03.542Z,1005.70
2022-09-22T06:50:02.501Z,1005.74
2022-09-22T06:51:02.490Z,1005.77
2022-09-22T06:52:02.486Z,1005.71
2022-09-22T06:53:02.472Z,1005.74
2022-09-22T06:54:02.461Z,1005.73
2022-09-22T06:55:02.432Z,1005.67
2022-09-22T06:56:02.422Z,1005.72
2022-09-22T06:57:02.432Z,1005.74
2022-09-22T06:58:02.441Z,1005.72
2022-09-22T06:59:09.830Z,1005.72
2022-09-22T07:00:03.495Z,1005.69
2022-09-22T07:01:05.185Z,1005.71
2022-09-22T07:02:03.441Z,1005.69
2022-09-22T07:03:02.353Z,1005.74
2022-09-22T07:04:02.343Z,1005.72
2022-09-22T07:05:02.330Z,1005.65
2022-09-22T07:06:02.312Z,1005.62
2022-09-22T07:07:02.294Z,1005.70
2022-09-22T07:08:02.293Z,1005.69
2022-09-22T07:09:02.326Z,1005.66
2022-09-22T07:10:02.255Z,1005.68
2022-09-22T07:11:02.258Z,1005.65
2022-09-22T07:12:02.237Z,1005.68
2022-09-22T07:13:02.238Z,1005.72
2022-09-22T07:14:02.231Z,1005.72
2022-09-22T07:15:02.237Z,1005.66
2022-09-22T07:16:02.220Z,1005.64
2022-09-22T07:17:02.184Z,1005.66
2022-09-22T07:18:02.176Z,1005.68
2022-09-22T07:19:02.158Z,1005.61
2022-09-22T07:20:02.147Z,1005.59
2022-09-22T07:21:02.168Z,1005.57
2022-09-22T07:22:02.117Z,1005.58
2022-09-22T07:23:02.126Z,1005.57
2022-09-22T07:24:02.098Z,1005.62
2022-09-22T07:25:02.086Z,1005.56
2022-09-22T07:26:02.106Z,1005.56
2022-09-22T07:27:02.066Z,1005.58
2022-09-22T07:28:02.057Z,1005.66
2022-09-22T07:29:02.062Z,1005.52
2022-09-22T07:30:02.037Z,1005.56
2022-09-22T07:31:02.033Z,1005.59
2022-09-22T07:32:02.102Z,1005.55
2022-09-22T07:33:02.005Z,1005.54
2022-09-22T07:34:02.012Z,1005.58
2022-09-22T07:35:01.977Z,1005.57
2022-09-22T07:36:01.959Z,1005.56
2022-09-22T07:37:01.977Z,1005.54
2022-09-22T07:38:01.938Z,1005.53
2022-09-22T07:39:01.929Z,1005.53
2022-09-22T07:40:01.947Z,1005.53
2022-09-22T07:41:01.908Z,1005.50
2022-09-22T07:42:01.894Z,1005.58
2022-09-22T07:43:02.132Z,1005.56
2022-09-22T07:44:01.879Z,1005.52
2022-09-22T07:45:01.871Z,1005.55
2022-09-22T07:46:01.840Z,1005.59
2022-09-22T07:47:01.994Z,1005.53
2022-09-22T07:48:01.868Z,1005.56
2022-09-22T07:49:01.818Z,1005.58
2022-09-22T07:50:01.802Z,1005.51
2022-09-22T07:51:01.819Z,1005.58
2022-09-22T07:52:01.782Z,1005.56
2022-09-22T07:53:01.761Z,1005.55
2022-09-22T07:54:01.802Z,1005.53
2022-09-22T07:55:01.762Z,1005.56
2022-09-22T07:56:01.746Z,1005.53
2022-09-22T07:57:01.740Z,1005.51
2022-09-22T07:58:01.742Z,1005.48
2022-09-22T07:59:01.713Z,1005.54
2022-09-22T08:00:01.714Z,1005.54
2022-09-22T08:01:01.726Z,1005.57
2022-09-22T08:02:01.733Z,1005.55
2022-09-22T08:03:01.663Z,1005.58
2022-09-22T08:04:01.669Z,1005.58
2022-09-22T08:05:01.663Z,1005.66
2022-09-22T08:06:05.993Z,1005.54
2022-09-22T08:07:01.622Z,1005.56
2022-09-22T08:08:01.613Z,1005.52
2022-09-22T08:09:01.590Z,1005.58
2022-09-22T08:10:01.576Z,1005.57
2022-09-22T08:11:01.595Z,1005.53
2022-09-22T08:12:01.577Z,1005.53
2022-09-22T08:13:01.557Z,1005.52
2022-09-22T08:14:01.554Z,1005.56
2022-09-22T08:15:01.547Z,1005.59
2022-09-22T08:16:01.632Z,1005.56
2022-09-22T08:17:01.529Z,1005.60
2022-09-22T08:18:01.495Z,1005.55
2022-09-22T08:19:01.559Z,1005.56
2022-09-22T08:20:01.467Z,1005.54
2022-09-22T08:21:01.446Z,1005.59
2022-09-22T08:22:01.475Z,1005.55
2022-09-22T08:23:01.454Z,1005.51
2022-09-22T08:24:01.418Z,1005.53
2022-09-22T08:25:01.402Z,1005.57
2022-09-22T08:26:01.387Z,1005.47
2022-09-22T08:27:01.375Z,1005.55
2022-09-22T08:28:01.396Z,1005.47
2022-09-22T08:29:01.356Z,1005.51
2022-09-22T08:30:01.352Z,1005.47
2022-09-22T08:31:01.421Z,1005.52
2022-09-22T08:32:01.338Z,1005.52
2022-09-22T08:33:01.318Z,1005.52
2022-09-22T08:34:01.329Z,1005.58
2022-09-22T08:35:01.278Z,1005.57
2022-09-22T08:36:01.282Z,1005.58
2022-09-22T08:37:01.268Z,1005.55
2022-09-22T08:38:01.252Z,1005.57
2022-09-22T08:39:01.273Z,1005.52
2022-09-22T08:40:01.239Z,1005.45
2022-09-22T08:41:01.230Z,1005.54
2022-09-22T08:42:01.226Z,1005.52
2022-09-22T08:43:01.189Z,1005.50
2022-09-22T08:44:01.190Z,1005.57
2022-09-22T08:45:01.235Z,1005.50
2022-09-22T08:46:01.178Z,1005.52
2022-09-22T08:47:01.275Z,1005.55
2022-09-22T08:48:01.170Z,1005.57
2022-09-22T08:49:01.121Z,1005.53
2022-09-22T08:50:01.124Z,1005.44
2022-09-22T08:51:01.130Z,1005.51
2022-09-22T08:52:01.103Z,1005.54
2022-09-22T08:53:01.082Z,1005.52
2022-09-22T08:54:06.951Z,1005.51
2022-09-22T08:55:02.082Z,1005.53
2022-09-22T08:56:01.056Z,1005.53
2022-09-22T08:57:01.085Z,1005.55
2022-09-22T08:58:01.034Z,1005.56
2022-09-22T08:59:01.015Z,1005.57
2022-09-22T09:00:01.037Z,1005.47
2022-09-22T09:01:01.064Z,1005.51
2022-09-22T09:02:01.118Z,1005.57
2022-09-22T09:03:01.042Z,1005.53
2022-09-22T09:04:00.955Z,1005.53
2022-09-22T09:05:00.964Z,1005.52
2022-09-22T09:06:00.945Z,1005.49
2022-09-22T09:07:00.974Z,1005.51
2022-09-22T09:08:00.975Z,1005.52
2022-09-22T09:09:04.827Z,1005.51
2022-09-22T09:10:00.898Z,1005.51
2022-09-22T09:11:00.886Z,1005.50
2022-09-22T09:12:00.917Z,1005.53
2022-09-22T09:13:00.862Z,1005.55
2022-09-22T09:14:00.889Z,1005.56
2022-09-22T09:15:00.845Z,1005.54
2022-09-22T09:16:00.925Z,1005.48
2022-09-22T09:17:00.805Z,1005.51
2022-09-22T09:18:00.811Z,1005.45
2022-09-22T09:19:00.797Z,1005.49
2022-09-22T09:20:00.960Z,1005.45
2022-09-22T09:21:00.817Z,1005.48
2022-09-22T09:22:00.767Z,1005.44
2022-09-22T09:23:00.767Z,1005.45
2022-09-22T09:25:27.149Z,1005.39
2022-09-22T09:26:01.733Z,1005.38
2022-09-22T09:27:00.707Z,1005.34
2022-09-22T09:28:00.692Z,1005.37
2022-09-22T09:29:03.878Z,1005.40
2022-09-22T09:30:00.679Z,1005.33
2022-09-22T09:31:00.706Z,1005.40
2022-09-22T09:32:00.640Z,1005.34
2022-09-22T09:33:00.659Z,1005.34
2022-09-22T09:34:00.620Z,1005.31
2022-09-22T09:35:00.658Z,1005.33
2022-09-22T09:36:00.590Z,1005.35
2022-09-22T09:37:00.612Z,1005.33
2022-09-22T09:38:00.591Z,1005.31
2022-09-22T09:39:00.606Z,1005.36
2022-09-22T09:40:00.603Z,1005.35
2022-09-22T09:41:00.539Z,1005.43
2022-09-22T09:42:00.530Z,1005.31
2022-09-22T09:43:03.082Z,1005.31
2022-09-22T09:44:00.512Z,1005.37
2022-09-22T09:45:00.491Z,1005.32
2022-09-22T09:46:00.526Z,1005.36
2022-09-22T09:47:00.520Z,1005.35
2022-09-22T09:48:00.463Z,1005.33
2022-09-22T09:49:00.465Z,1005.36
2022-09-22T09:50:00.433Z,1005.33
2022-09-22T09:51:00.424Z,1005.27
2022-09-22T09:52:00.423Z,1005.22
2022-09-22T09:53:00.402Z,1005.29
2022-09-22T09:54:00.413Z,1005.28
2022-09-22T09:55:00.386Z,1005.24
2022-09-22T09:56:00.375Z,1005.30
2022-09-22T09:57:00.359Z,1005.31
2022-09-22T09:58:00.336Z,1005.30
2022-09-22T09:59:00.404Z,1005.27
2022-09-22T10:00:00.350Z,1005.25
2022-09-22T10:01:00.307Z,1005.28
2022-09-22T10:02:00.357Z,1005.28
2022-09-22T10:03:00.296Z,1005.29
2022-09-22T10:04:00.351Z,1005.30
2022-09-22T10:05:00.297Z,1005.22
2022-09-22T10:06:00.279Z,1005.27
2022-09-22T10:07:01.442Z,1005.21
2022-09-22T10:08:00.236Z,1005.20
2022-09-22T10:09:00.254Z,1005.19
2022-09-22T10:10:00.210Z,1005.21
2022-09-22T10:11:00.261Z,1005.17
2022-09-22T10:12:00.225Z,1005.19
2022-09-22T10:13:00.200Z,1005.12
2022-09-22T10:14:00.171Z,1005.22
2022-09-22T10:15:00.156Z,1005.14
2022-09-22T10:16:00.191Z,1005.19
2022-09-22T10:17:00.162Z,1005.17
2022-09-22T10:18:00.121Z,1005.17
2022-09-22T10:19:00.112Z,1005.11
2022-09-22T10:20:00.098Z,1005.08
2022-09-22T10:21:00.094Z,1005.15
2022-09-22T10:22:00.098Z,1005.11
2022-09-22T10:23:00.068Z,1005.11
2022-09-22T10:24:00.054Z,1005.09
2022-09-22T10:25:00.054Z,1005.13
2022-09-22T10:26:00.072Z,1005.08
2022-09-22T10:27:02.515Z,1005.04
2022-09-22T10:28:01.042Z,1005.04
2022-09-22T10:28:59.991Z,1005.01
2022-09-22T10:29:59.983Z,1005.02
2022-09-22T10:31:00.024Z,1005.01
2022-09-22T10:31:59.973Z,1005.02
2022-09-22T10:32:59.984Z,1004.99
2022-09-22T10:33:59.944Z,1005.01
2022-09-22T10:34:59.924Z,1005.04
2022-09-22T10:35:59.905Z,1004.97
2022-09-22T10:36:59.897Z,1005.01
2022-09-22T10:37:59.897Z,1005.00
2022-09-22T10:39:00.211Z,1004.97
2022-09-22T10:39:59.871Z,1004.97
2022-09-22T10:40:59.855Z,1004.94
2022-09-22T10:41:59.845Z,1005.01
2022-09-22T10:42:59.831Z,1004.96
2022-09-22T10:44:03.120Z,1004.93
2022-09-22T10:45:00.836Z,1004.85
2022-09-22T10:45:59.872Z,1004.89
2022-09-22T10:46:59.797Z,1004.84
2022-09-22T10:47:59.767Z,1004.88
2022-09-22T10:48:59.837Z,1004.86
2022-09-22T10:49:59.770Z,1004.80
2022-09-22T10:50:59.739Z,1004.80
2022-09-22T10:51:59.746Z,1004.79
2022-09-22T10:52:59.718Z,1004.79
2022-09-22T10:53:59.728Z,1004.78
2022-09-22T10:54:59.718Z,1004.79
2022-09-22T10:55:59.708Z,1004.77
2022-09-22T10:56:59.659Z,1004.72
2022-09-22T10:57:59.662Z,1004.74
2022-09-22T10:58:59.641Z,1004.74
2022-09-22T10:59:59.659Z,1004.76
2022-09-22T11:00:59.660Z,1004.74
2022-09-22T11:01:59.724Z,1004.75
2022-09-22T11:02:59.603Z,1004.73
2022-09-22T11:03:59.738Z,1004.67
2022-09-22T11:04:59.701Z,1004.66
2022-09-22T11:05:59.642Z,1004.64
2022-09-22T11:06:59.562Z,1004.58
2022-09-22T11:07:59.602Z,1004.61
2022-09-22T11:08:59.532Z,1004.58
2022-09-22T11:09:59.533Z,1004.61
2022-09-22T11:10:59.512Z,1004.59
2022-09-22T11:11:59.502Z,1004.58
2022-09-22T11:12:59.480Z,1004.60
2022-09-22T11:13:59.673Z,1004.59
2022-09-22T11:14:59.475Z,1004.55
2022-09-22T11:15:59.487Z,1004.52
2022-09-22T11:16:59.436Z,1004.46
2022-09-22T11:17:59.434Z,1004.51
2022-09-22T11:18:59.415Z,1004.54
2022-09-22T11:19:59.475Z,1004.53
2022-09-22T11:20:59.396Z,1004.45
2022-09-22T11:21:59.381Z,1004.48
2022-09-22T11:22:59.367Z,1004.50
2022-09-22T11:23:59.377Z,1004.42
2022-09-22T11:24:59.366Z,1004.48
2022-09-22T11:25:59.381Z,1004.44
2022-09-22T11:26:59.348Z,1004.40
2022-09-22T11:27:59.319Z,1004.36
2022-09-22T11:28:59.296Z,1004.44
2022-09-22T11:29:59.310Z,1004.35
2022-09-22T11:30:59.361Z,1004.40
2022-09-22T11:31:59.260Z,1004.36
2022-09-22T11:32:59.536Z,1004.35
2022-09-22T11:33:59.260Z,1004.39
2022-09-22T11:34:59.258Z,1004.38
2022-09-22T11:35:59.229Z,1004.34
2022-09-22T11:36:59.230Z,1004.38
2022-09-22T11:37:59.410Z,1004.33
2022-09-22T11:38:59.177Z,1004.32
2022-09-22T11:39:59.180Z,1004.30
2022-09-22T11:40:59.163Z,1004.34
2022-09-22T11:41:59.432Z,1004.27
2022-09-22T11:43:02.116Z,1004.29
2022-09-22T11:44:00.304Z,1004.26
2022-09-22T11:44:59.123Z,1004.28
2022-09-22T11:45:59.163Z,1004.31
2022-09-22T11:46:59.099Z,1004.27
2022-09-22T11:47:59.103Z,1004.21
2022-09-22T11:48:59.069Z,1004.21
2022-09-22T11:49:59.086Z,1004.15
2022-09-22T11:50:59.042Z,1004.18
2022-09-22T11:51:59.043Z,1004.15
2022-09-22T11:52:59.023Z,1004.18
2022-09-22T11:53:59.052Z,1004.10
2022-09-22T11:55:00.787Z,1004.12
2022-09-22T11:55:58.992Z,1004.07
2022-09-22T11:56:58.983Z,1004.10
2022-09-22T11:57:58.976Z,1004.09
2022-09-22T11:58:58.955Z,1004.10
2022-09-22T11:59:59.095Z,1004.05
2022-09-22T12:00:58.936Z,1004.06
2022-09-22T12:01:58.967Z,1004.05
2022-09-22T12:03:01.910Z,1004.09
2022-09-22T12:03:58.905Z,1004.00
2022-09-22T12:04:58.915Z,1003.99
2022-09-22T12:05:58.917Z,1003.96